Time;durP1;ratioP1;P1;durP2;ratioP2;P2;SDS_P1;SDS_P2;PMS_P1;PMS_P2;Temp;Humidity;BMP_temperature;BMP_pressure;BME280_temperature;BME280_humidity;BME280_pressure;Samples;Min_cycle;Max_cycle;Signal;HPM_P1;HPM_P2
2022/10/22 00:00:55;;;;;;;21.23;16.33;;;13.40;99.90;;;;;;4991071;28;20524;-51
2022/10/22 00:03:23;;;;;;;25.07;16.57;;;13.40;99.90;;;;;;4981458;28;20465;-51
2022/10/22 00:05:50;;;;;;;21.50;16.90;;;13.40;99.90;;;;;;4985631;28;20477;-51
2022/10/22 00:08:16;;;;;;;23.93;15.60;;;13.40;99.90;;;;;;4986338;28;20484;-51
2022/10/22 00:10:43;;;;;;;20.30;15.97;;;13.40;99.90;;;;;;4986209;28;20989;-51
2022/10/22 00:13:10;;;;;;;22.50;16.90;;;13.30;99.90;;;;;;4987178;28;20488;-52
2022/10/22 00:15:37;;;;;;;19.87;16.40;;;13.30;99.90;;;;;;4988427;28;20516;-51
2022/10/22 00:18:03;;;;;;;22.57;16.63;;;13.30;99.90;;;;;;4985805;28;20512;-52
2022/10/22 00:20:31;;;;;;;27.27;15.60;;;13.30;99.90;;;;;;4989660;28;20567;-52
2022/10/22 00:22:58;;;;;;;17.73;15.23;;;13.30;99.90;;;;;;4985903;28;20499;-51
2022/10/22 00:25:24;;;;;;;22.23;16.33;;;13.30;99.90;;;;;;4985422;28;20508;-52
2022/10/22 00:27:51;;;;;;;21.07;14.70;;;13.30;99.90;;;;;;4988185;28;20993;-52
2022/10/22 00:30:18;;;;;;;21.27;14.47;;;13.30;99.90;;;;;;4989996;28;20484;-51
2022/10/22 00:32:44;;;;;;;18.37;15.07;;;13.20;99.90;;;;;;4984721;28;20500;-52
2022/10/22 00:35:11;;;;;;;32.03;15.27;;;13.20;99.90;;;;;;4978746;28;21085;-52
2022/10/22 00:37:39;;;;;;;17.97;14.50;;;13.20;99.90;;;;;;4985101;28;20528;-51
2022/10/22 00:40:07;;;;;;;19.03;14.37;;;13.20;99.90;;;;;;4986833;28;20550;-52
2022/10/22 00:42:33;;;;;;;21.23;14.87;;;13.20;99.90;;;;;;4989419;28;20465;-52
2022/10/22 00:45:05;;;;;;;17.27;14.43;;;13.20;99.90;;;;;;4987196;28;20523;-54
2022/10/22 00:47:36;;;;;;;18.27;15.30;;;13.20;99.90;;;;;;4989168;28;20449;-54
2022/10/22 00:50:05;;;;;;;26.93;15.33;;;13.10;99.90;;;;;;4987295;28;21096;-53
2022/10/22 00:52:32;;;;;;;36.50;17.23;;;13.10;99.90;;;;;;4986936;28;20496;-53
2022/10/22 00:55:00;;;;;;;26.40;15.43;;;13.10;99.90;;;;;;4987363;28;20574;-53
2022/10/22 00:57:27;;;;;;;22.57;15.00;;;13.00;99.90;;;;;;4989014;28;20522;-54
2022/10/22 00:59:56;;;;;;;18.70;14.70;;;13.00;99.90;;;;;;4983889;28;20496;-53
2022/10/22 01:02:23;;;;;;;23.23;16.17;;;12.90;99.90;;;;;;4988594;28;20495;-53
2022/10/22 01:04:50;;;;;;;21.10;15.70;;;12.90;99.90;;;;;;4986163;28;20520;-53
2022/10/22 01:07:19;;;;;;;16.77;14.90;;;12.80;99.90;;;;;;4986824;28;20500;-54
2022/10/22 01:09:55;;;;;;;18.33;14.90;;;12.80;99.90;;;;;;4987198;28;20787;-54
2022/10/22 01:12:32;;;;;;;20.17;14.73;;;12.70;99.90;;;;;;4985071;28;20496;-52
2022/10/22 01:15:10;;;;;;;19.53;14.87;;;12.80;99.90;;;;;;4988339;28;20508;-53
2022/10/22 01:17:44;;;;;;;19.90;14.40;;;12.70;99.90;;;;;;4984155;28;20512;-53
2022/10/22 01:20:22;;;;;;;18.50;14.23;;;12.70;99.90;;;;;;4986216;28;20558;-54
2022/10/22 01:22:59;;;;;;;21.00;15.00;;;12.80;99.90;;;;;;4986621;28;21032;-52
2022/10/22 01:25:34;;;;;;;17.90;14.80;;;12.90;99.90;;;;;;4987237;28;20476;-53
2022/10/22 01:28:21;;;;;;;21.23;14.57;;;12.90;99.90;;;;;;4986650;28;20486;-53
2022/10/22 01:30:51;;;;;;;16.43;14.73;;;12.90;99.90;;;;;;4986592;28;20522;-53
2022/10/22 01:33:21;;;;;;;17.80;14.07;;;13.00;99.90;;;;;;4991722;28;20488;-54
2022/10/22 01:35:48;;;;;;;17.50;14.07;;;13.00;99.90;;;;;;4989602;28;20476;-54
2022/10/22 01:38:19;;;;;;;19.20;16.00;;;12.90;99.90;;;;;;4992016;28;20900;-54
2022/10/22 01:40:47;;;;;;;18.43;13.30;;;12.90;99.90;;;;;;4992474;28;20460;-55
2022/10/22 01:43:14;;;;;;;22.73;14.70;;;12.90;99.90;;;;;;4987969;28;20452;-54
2022/10/22 01:45:43;;;;;;;16.23;13.90;;;12.90;99.90;;;;;;4987801;28;20531;-54
2022/10/22 01:48:30;;;;;;;23.13;13.50;;;12.90;99.90;;;;;;4991839;28;20456;-53
2022/10/22 01:51:12;;;;;;;17.57;12.97;;;12.90;99.90;;;;;;4988504;28;20460;-54
2022/10/22 01:53:50;;;;;;;16.00;13.37;;;12.90;99.90;;;;;;4991815;28;20526;-54
2022/10/22 01:56:28;;;;;;;16.20;12.50;;;12.80;99.90;;;;;;4989303;28;20468;-52
2022/10/22 01:59:03;;;;;;;15.27;12.67;;;12.70;99.90;;;;;;4990105;28;20484;-54
2022/10/22 02:01:36;;;;;;;16.50;13.00;;;12.70;99.90;;;;;;4992310;28;20973;-53
2022/10/22 02:04:13;;;;;;;18.20;11.80;;;12.70;99.90;;;;;;4987525;28;20464;-53
2022/10/22 02:06:43;;;;;;;17.00;12.97;;;12.60;99.90;;;;;;4988946;28;20510;-54
2022/10/22 02:09:13;;;;;;;16.70;12.63;;;12.60;99.90;;;;;;4991936;28;20502;-54
2022/10/22 02:11:40;;;;;;;13.33;11.80;;;12.60;99.90;;;;;;4991142;28;21503;-54
2022/10/22 02:14:08;;;;;;;13.10;11.37;;;12.60;99.90;;;;;;4987145;28;20460;-53
2022/10/22 02:16:39;;;;;;;16.60;12.83;;;12.60;99.90;;;;;;4986252;28;20464;-55
2022/10/22 02:19:13;;;;;;;14.00;11.23;;;12.50;99.90;;;;;;4992358;28;20488;-55
2022/10/22 02:21:40;;;;;;;14.33;12.40;;;12.60;99.90;;;;;;4991527;28;20460;-52
2022/10/22 02:24:07;;;;;;;12.20;10.70;;;12.60;99.90;;;;;;4991739;28;20514;-53
2022/10/22 02:26:39;;;;;;;18.00;12.13;;;12.60;99.90;;;;;;4991021;28;20538;-53
2022/10/22 02:29:13;;;;;;;22.80;13.23;;;12.50;99.90;;;;;;4989755;28;20461;-54
2022/10/22 02:31:44;;;;;;;19.30;14.30;;;12.50;99.90;;;;;;4988711;28;20555;-54
2022/10/22 02:34:18;;;;;;;17.30;11.97;;;12.50;99.90;;;;;;4991100;28;20480;-54
2022/10/22 02:36:46;;;;;;;18.67;13.00;;;12.60;99.90;;;;;;4987600;28;20522;-54
2022/10/22 02:39:14;;;;;;;18.97;12.37;;;12.60;99.90;;;;;;4991621;28;20484;-53
2022/10/22 02:41:41;;;;;;;12.07;10.63;;;12.60;99.90;;;;;;4990791;28;20539;-53
2022/10/22 02:44:10;;;;;;;14.10;11.33;;;12.60;99.90;;;;;;4988817;28;20488;-54
2022/10/22 02:46:37;;;;;;;12.97;10.90;;;12.60;99.90;;;;;;4988706;28;20962;-53
2022/10/22 02:49:04;;;;;;;14.33;11.07;;;12.60;99.90;;;;;;4991790;28;20452;-53
2022/10/22 02:51:32;;;;;;;12.57;10.67;;;12.50;99.90;;;;;;4988979;28;20488;-54
2022/10/22 02:53:59;;;;;;;13.73;10.80;;;12.50;99.90;;;;;;4987463;28;20460;-53
2022/10/22 02:56:26;;;;;;;16.87;11.17;;;12.50;99.90;;;;;;4986164;28;20456;-53
2022/10/22 02:58:52;;;;;;;14.43;11.23;;;12.50;99.90;;;;;;4989964;28;20880;-55
2022/10/22 03:01:19;;;;;;;15.60;12.23;;;12.50;99.90;;;;;;4989637;28;20461;-54
2022/10/22 03:03:45;;;;;;;12.13;10.03;;;12.40;99.90;;;;;;4990864;28;20500;-53
2022/10/22 03:06:12;;;;;;;14.73;10.93;;;12.40;99.90;;;;;;4989345;28;21044;-51
2022/10/22 03:08:40;;;;;;;14.77;10.70;;;12.40;99.90;;;;;;4989801;28;20464;-53
2022/10/22 03:11:07;;;;;;;10.63;9.53;;;12.50;99.90;;;;;;4991052;28;20962;-52
2022/10/22 03:13:34;;;;;;;12.00;10.27;;;12.40;99.90;;;;;;4988777;28;20954;-52
2022/10/22 03:16:01;;;;;;;16.20;11.43;;;12.50;99.90;;;;;;4988079;28;20568;-53
2022/10/22 03:18:27;;;;;;;12.00;10.33;;;12.40;99.90;;;;;;4988843;28;20551;-51
2022/10/22 03:21:04;;;;;;;12.37;10.13;;;12.40;99.90;;;;;;4984518;28;20538;-51
2022/10/22 03:23:31;;;;;;;12.50;11.30;;;12.50;99.90;;;;;;4987671;28;20841;-51
2022/10/22 03:26:00;;;;;;;13.30;9.37;;;12.50;99.90;;;;;;4988666;28;21060;-52
2022/10/22 03:28:26;;;;;;;14.50;10.40;;;12.50;99.90;;;;;;4989631;28;20511;-53
2022/10/22 03:30:53;;;;;;;10.20;9.20;;;12.40;99.90;;;;;;4989559;28;20547;-51
2022/10/22 03:33:19;;;;;;;12.80;9.67;;;12.40;99.90;;;;;;4991123;28;20519;-51
2022/10/22 03:35:47;;;;;;;11.00;9.87;;;12.40;99.90;;;;;;4990378;28;21069;-52
2022/10/22 03:38:14;;;;;;;18.77;10.67;;;12.30;99.90;;;;;;4988119;28;20559;-51
2022/10/22 03:40:42;;;;;;;11.40;9.07;;;12.30;99.90;;;;;;4990694;28;20546;-51
2022/10/22 03:43:11;;;;;;;10.53;9.10;;;12.30;99.90;;;;;;4988138;28;20461;-51
2022/10/22 03:45:37;;;;;;;9.80;8.80;;;12.30;99.90;;;;;;4984251;28;20492;-51
2022/10/22 03:48:05;;;;;;;10.70;9.60;;;12.30;99.90;;;;;;4990142;28;20460;-52
2022/10/22 03:50:31;;;;;;;11.67;9.93;;;12.30;99.90;;;;;;4987775;28;20460;-52
2022/10/22 03:52:58;;;;;;;14.20;11.10;;;12.30;99.90;;;;;;4988491;28;20978;-51
2022/10/22 03:55:25;;;;;;;12.20;9.73;;;12.30;99.90;;;;;;4986054;28;20476;-51
2022/10/22 03:57:51;;;;;;;12.07;10.50;;;12.30;99.90;;;;;;4987863;28;20546;-51
2022/10/22 04:00:20;;;;;;;13.10;9.97;;;12.30;99.90;;;;;;4987502;28;20527;-51
2022/10/22 04:02:46;;;;;;;15.10;10.07;;;12.30;99.90;;;;;;4986107;28;20523;-51
2022/10/22 04:05:13;;;;;;;12.00;8.97;;;12.30;99.90;;;;;;4987998;28;20484;-52
2022/10/22 04:07:39;;;;;;;12.80;9.60;;;12.30;99.90;;;;;;4986894;28;20511;-53
2022/10/22 04:10:07;;;;;;;11.00;9.20;;;12.30;99.90;;;;;;4990545;28;20460;-52
2022/10/22 04:12:33;;;;;;;10.33;8.30;;;12.20;99.90;;;;;;4988744;28;20460;-51
2022/10/22 04:15:00;;;;;;;11.07;9.50;;;12.20;99.90;;;;;;4986867;28;20480;-51
2022/10/22 04:17:33;;;;;;;13.27;10.60;;;12.20;99.90;;;;;;4983490;28;20490;-52
2022/10/22 04:19:59;;;;;;;13.60;9.53;;;12.20;99.90;;;;;;4989705;28;20947;-51
2022/10/22 04:22:26;;;;;;;10.47;9.23;;;12.20;99.90;;;;;;4986564;28;20815;-52
2022/10/22 04:24:52;;;;;;;9.07;8.17;;;12.20;99.90;;;;;;4988770;28;20901;-51
2022/10/22 04:27:19;;;;;;;11.60;9.10;;;12.20;99.90;;;;;;4987315;28;20461;-52
2022/10/22 04:29:46;;;;;;;10.80;8.90;;;12.10;99.90;;;;;;4989874;28;20464;-51
2022/10/22 04:32:12;;;;;;;10.80;9.40;;;12.20;99.90;;;;;;4988639;28;20464;-52
2022/10/22 04:34:40;;;;;;;13.20;10.50;;;12.20;99.90;;;;;;4989831;28;20487;-52
2022/10/22 04:37:07;;;;;;;11.93;10.67;;;12.20;99.90;;;;;;4988784;28;20523;-51
2022/10/22 04:39:33;;;;;;;14.57;10.80;;;12.20;99.90;;;;;;4988183;28;20480;-51
2022/10/22 04:42:00;;;;;;;11.63;10.40;;;12.30;99.90;;;;;;4987230;28;21222;-51
2022/10/22 04:44:26;;;;;;;11.00;9.90;;;12.30;99.90;;;;;;4988044;28;21052;-51
2022/10/22 04:46:53;;;;;;;10.30;9.30;;;12.30;99.90;;;;;;4989640;28;20460;-51
2022/10/22 04:49:19;;;;;;;14.70;10.33;;;12.30;99.90;;;;;;4986938;28;20511;-52
2022/10/22 04:51:47;;;;;;;12.33;9.70;;;12.30;99.90;;;;;;4988685;28;20468;-52
2022/10/22 04:54:14;;;;;;;9.63;8.50;;;12.30;99.90;;;;;;4988672;28;20484;-52
2022/10/22 04:56:40;;;;;;;11.20;9.77;;;12.30;99.90;;;;;;4985831;28;20500;-52
2022/10/22 04:59:11;;;;;;;12.37;8.70;;;12.30;99.90;;;;;;4991292;28;20477;-52
2022/10/22 05:01:40;;;;;;;9.90;8.23;;;12.30;99.90;;;;;;4990064;28;20460;-52
2022/10/22 05:04:08;;;;;;;11.43;9.00;;;12.20;99.90;;;;;;4994347;28;20523;-52
2022/10/22 05:06:36;;;;;;;10.40;9.30;;;12.30;99.90;;;;;;4985383;28;20465;-51
2022/10/22 05:09:06;;;;;;;12.77;9.90;;;12.20;99.90;;;;;;4991658;28;20507;-51
2022/10/22 05:11:35;;;;;;;12.90;9.60;;;12.20;99.90;;;;;;4994789;28;20461;-51
2022/10/22 05:14:04;;;;;;;12.53;9.47;;;12.20;99.90;;;;;;4993803;28;20460;-51
2022/10/22 05:16:32;;;;;;;11.07;8.87;;;12.20;99.90;;;;;;4986307;28;20816;-52
2022/10/22 05:18:59;;;;;;;10.30;8.57;;;12.10;99.90;;;;;;4992564;28;20526;-52
2022/10/22 05:21:26;;;;;;;12.20;8.80;;;12.20;99.90;;;;;;4991924;28;20528;-52
2022/10/22 05:23:54;;;;;;;10.90;9.20;;;12.10;99.90;;;;;;4992694;28;20539;-51
2022/10/22 05:26:23;;;;;;;15.13;8.60;;;12.10;99.90;;;;;;4990698;28;20835;-51
2022/10/22 05:28:51;;;;;;;8.60;7.77;;;12.10;99.90;;;;;;4991982;28;20548;-52
2022/10/22 05:31:18;;;;;;;10.80;9.70;;;12.10;99.90;;;;;;4991984;28;20889;-52
2022/10/22 05:33:46;;;;;;;12.07;10.80;;;12.10;99.90;;;;;;4991481;28;20464;-52
2022/10/22 05:36:15;;;;;;;9.67;8.47;;;12.00;99.90;;;;;;4991899;28;20539;-52
2022/10/22 05:38:41;;;;;;;11.53;7.90;;;12.00;99.90;;;;;;4990802;28;20524;-52
2022/10/22 05:41:10;;;;;;;11.27;8.77;;;12.00;99.90;;;;;;4992290;28;20464;-52
2022/10/22 05:43:38;;;;;;;9.57;8.57;;;12.00;99.90;;;;;;4994106;28;20520;-52
2022/10/22 05:46:07;;;;;;;9.30;8.40;;;12.00;99.90;;;;;;4988705;28;20488;-52
2022/10/22 05:48:34;;;;;;;9.13;8.17;;;12.00;99.90;;;;;;4990275;28;20512;-51
2022/10/22 05:51:03;;;;;;;10.43;8.73;;;11.90;99.90;;;;;;4986389;28;20457;-51
2022/10/22 05:53:30;;;;;;;10.50;9.50;;;11.90;99.90;;;;;;4991085;28;20457;-51
2022/10/22 05:56:00;;;;;;;9.20;8.20;;;11.90;99.90;;;;;;4986972;28;21073;-52
2022/10/22 05:58:27;;;;;;;9.33;8.50;;;11.90;99.90;;;;;;4993298;28;20480;-52
2022/10/22 06:00:55;;;;;;;9.27;8.37;;;11.90;99.90;;;;;;4988927;28;20890;-52
2022/10/22 06:03:21;;;;;;;10.87;9.67;;;11.90;99.90;;;;;;4990361;28;20464;-52
2022/10/22 06:05:48;;;;;;;12.13;10.83;;;11.90;99.90;;;;;;4986145;28;20990;-52
2022/10/22 06:08:15;;;;;;;15.10;11.47;;;11.90;99.90;;;;;;4991704;28;20962;-52
2022/10/22 06:10:43;;;;;;;16.13;10.67;;;11.90;99.90;;;;;;4989834;28;20460;-52
2022/10/22 06:13:09;;;;;;;19.23;11.10;;;11.90;99.90;;;;;;4986886;28;21039;-53
2022/10/22 06:15:36;;;;;;;12.20;10.97;;;12.00;99.90;;;;;;4993796;28;20476;-53
2022/10/22 06:18:04;;;;;;;14.30;12.67;;;11.90;99.90;;;;;;4994913;28;20460;-52
2022/10/22 06:20:33;;;;;;;14.00;11.77;;;12.00;99.90;;;;;;4990324;28;20484;-52
2022/10/22 06:23:00;;;;;;;27.37;12.60;;;12.00;99.90;;;;;;4990678;28;20201;-52
2022/10/22 06:25:26;;;;;;;16.00;11.77;;;12.10;99.90;;;;;;4992803;28;20515;-52
2022/10/22 06:27:53;;;;;;;14.77;10.53;;;12.10;99.90;;;;;;4989919;28;21066;-52
2022/10/22 06:30:20;;;;;;;14.47;11.53;;;12.20;99.90;;;;;;4992232;28;20465;-51
2022/10/22 06:32:46;;;;;;;11.97;10.77;;;12.30;99.90;;;;;;4989984;28;20460;-52
2022/10/22 06:35:14;;;;;;;14.20;11.20;;;12.30;99.90;;;;;;4988507;28;20492;-52
2022/10/22 06:37:41;;;;;;;12.90;11.43;;;12.40;99.90;;;;;;4989970;28;20519;-51
2022/10/22 06:40:09;;;;;;;14.50;11.77;;;12.40;99.90;;;;;;4992039;28;20484;-51
2022/10/22 06:42:36;;;;;;;15.80;11.97;;;12.40;99.90;;;;;;4988607;28;20461;-52
2022/10/22 06:45:03;;;;;;;15.80;11.90;;;12.40;99.90;;;;;;4992391;28;20496;-51
2022/10/22 06:47:32;;;;;;;11.77;10.60;;;12.50;99.90;;;;;;4988193;28;20468;-52
2022/10/22 06:49:58;;;;;;;16.23;12.17;;;12.50;99.90;;;;;;4982545;28;20522;-53
2022/10/22 06:52:26;;;;;;;13.23;11.03;;;12.50;99.90;;;;;;4987614;28;20911;-53
2022/10/22 06:54:53;;;;;;;12.50;11.20;;;12.50;99.90;;;;;;4985202;28;20565;-54
2022/10/22 06:57:19;;;;;;;13.63;10.43;;;12.60;99.90;;;;;;4987070;28;20519;-55
2022/10/22 06:59:46;;;;;;;15.87;11.47;;;12.60;99.90;;;;;;4990656;28;20503;-54
2022/10/22 07:02:13;;;;;;;12.53;11.20;;;12.60;99.90;;;;;;4985598;28;20461;-52
2022/10/22 07:04:39;;;;;;;13.40;11.00;;;12.70;99.90;;;;;;4991250;28;20488;-56
2022/10/22 07:07:06;;;;;;;14.87;10.90;;;12.70;99.90;;;;;;4988720;28;20461;-53
2022/10/22 07:09:34;;;;;;;16.47;11.20;;;12.70;99.90;;;;;;4991734;28;20461;-53
2022/10/22 07:12:00;;;;;;;14.27;11.70;;;12.70;99.90;;;;;;4989045;28;21017;-54
2022/10/22 07:14:27;;;;;;;14.83;11.30;;;12.80;99.90;;;;;;4981445;28;20916;-53
2022/10/22 07:16:53;;;;;;;13.70;11.10;;;12.80;99.90;;;;;;4987361;28;20464;-53
2022/10/22 07:19:20;;;;;;;14.23;12.70;;;12.80;99.90;;;;;;4984118;28;20485;-54
2022/10/22 07:21:46;;;;;;;15.43;11.77;;;12.90;99.90;;;;;;4986860;28;20553;-53
2022/10/22 07:24:13;;;;;;;20.87;11.43;;;12.90;99.90;;;;;;4985109;28;20476;-53
2022/10/22 07:26:41;;;;;;;15.03;10.97;;;12.90;99.90;;;;;;4987418;28;20519;-54
2022/10/22 07:29:08;;;;;;;15.17;12.53;;;13.00;99.90;;;;;;4980811;28;20453;-54
2022/10/22 07:31:35;;;;;;;18.27;13.30;;;13.00;99.90;;;;;;4986574;28;20539;-54
2022/10/22 07:34:02;;;;;;;17.83;14.60;;;13.00;99.90;;;;;;4983799;28;20472;-54
2022/10/22 07:36:29;;;;;;;26.50;16.60;;;13.00;99.90;;;;;;4980699;28;22092;-53
2022/10/22 07:38:57;;;;;;;18.00;13.47;;;13.10;99.90;;;;;;4983784;28;20512;-54
2022/10/22 07:41:25;;;;;;;16.23;12.57;;;13.10;99.90;;;;;;4983404;28;20469;-55
2022/10/22 07:43:53;;;;;;;15.60;12.40;;;13.10;99.90;;;;;;4982594;28;20510;-54
2022/10/22 07:46:19;;;;;;;24.50;12.50;;;13.20;99.90;;;;;;4977229;28;20555;-53
2022/10/22 07:48:46;;;;;;;24.23;12.50;;;13.20;99.90;;;;;;4980795;28;21398;-53
2022/10/22 07:51:13;;;;;;;13.80;12.20;;;13.30;99.90;;;;;;4976844;28;20547;-53
2022/10/22 07:53:40;;;;;;;23.03;14.30;;;13.30;99.90;;;;;;4980303;28;20496;-53
2022/10/22 07:56:07;;;;;;;21.20;14.40;;;13.30;99.90;;;;;;4983855;28;20562;-54
2022/10/22 07:58:34;;;;;;;18.60;13.37;;;13.40;99.90;;;;;;4981204;28;20488;-54
2022/10/22 08:01:04;;;;;;;16.27;12.90;;;13.40;99.90;;;;;;4984262;28;20488;-53
2022/10/22 08:03:32;;;;;;;18.13;12.80;;;13.50;99.90;;;;;;4979314;28;20457;-53
2022/10/22 08:05:58;;;;;;;16.20;12.73;;;13.50;99.90;;;;;;4980373;28;20969;-53
2022/10/22 08:08:26;;;;;;;16.73;12.83;;;13.50;99.90;;;;;;4984541;28;20989;-54
2022/10/22 08:10:53;;;;;;;14.67;10.63;;;13.60;99.90;;;;;;4982764;28;20963;-53
2022/10/22 08:13:20;;;;;;;14.70;11.37;;;13.60;99.90;;;;;;4980790;28;20488;-53
2022/10/22 08:15:47;;;;;;;15.70;12.70;;;13.60;99.90;;;;;;4986369;28;20480;-53
2022/10/22 08:18:15;;;;;;;16.30;11.50;;;13.60;99.90;;;;;;4986077;28;20535;-53
2022/10/22 08:20:42;;;;;;;15.10;12.17;;;13.60;99.90;;;;;;4979170;28;20512;-53
2022/10/22 08:23:09;;;;;;;14.10;11.70;;;13.70;99.90;;;;;;4982368;28;20465;-53
2022/10/22 08:25:36;;;;;;;16.47;12.53;;;13.70;99.90;;;;;;4978949;28;20489;-53
2022/10/22 08:28:02;;;;;;;16.53;12.00;;;13.80;99.90;;;;;;4982156;28;20823;-54
2022/10/22 08:30:29;;;;;;;15.73;12.17;;;13.80;99.90;;;;;;4986199;28;20453;-54
2022/10/22 08:32:55;;;;;;;19.23;14.43;;;13.80;99.90;;;;;;4985469;28;20456;-54
2022/10/22 08:35:23;;;;;;;18.20;13.30;;;13.80;99.90;;;;;;4983510;28;20484;-55
2022/10/22 08:37:50;;;;;;;16.07;11.83;;;13.80;99.90;;;;;;4981071;28;20889;-54
2022/10/22 08:40:25;;;;;;;18.13;12.20;;;13.80;99.90;;;;;;4978017;28;20574;-54
2022/10/22 08:43:24;;;;;;;13.97;11.90;;;13.90;99.90;;;;;;4986952;28;20495;-54
2022/10/22 08:46:02;;;;;;;14.03;11.20;;;13.90;99.90;;;;;;4973603;28;20543;-52
2022/10/22 08:48:41;;;;;;;16.40;11.57;;;14.00;99.90;;;;;;4970099;28;20543;-52
2022/10/22 08:51:14;;;;;;;13.63;12.20;;;14.00;99.90;;;;;;4974107;28;20485;-52
2022/10/22 08:53:48;;;;;;;12.73;11.10;;;14.00;99.90;;;;;;4980315;28;20871;-52
2022/10/22 08:56:15;;;;;;;15.43;12.63;;;14.10;99.90;;;;;;4985653;28;20882;-53
2022/10/22 08:58:49;;;;;;;19.50;11.57;;;14.20;99.90;;;;;;4969661;28;20683;-53
2022/10/22 09:01:22;;;;;;;15.80;11.80;;;14.30;99.90;;;;;;4978781;28;20495;-54
2022/10/22 09:03:52;;;;;;;15.10;11.83;;;14.30;99.90;;;;;;4981419;28;20465;-54
2022/10/22 09:06:23;;;;;;;14.37;11.00;;;14.40;99.90;;;;;;4978310;28;20464;-54
2022/10/22 09:08:51;;;;;;;22.43;12.90;;;14.40;99.90;;;;;;4978234;28;20527;-53
2022/10/22 09:11:25;;;;;;;13.63;12.20;;;14.40;99.90;;;;;;4976155;28;22603;-54
2022/10/22 09:13:53;;;;;;;15.10;10.87;;;14.40;99.90;;;;;;4982695;28;20828;-54
2022/10/22 09:16:26;;;;;;;18.90;12.57;;;14.30;99.90;;;;;;4973525;28;20452;-54
2022/10/22 09:19:05;;;;;;;14.70;10.60;;;14.30;99.90;;;;;;4971975;28;20500;-53
2022/10/22 09:21:42;;;;;;;47.37;30.60;;;14.40;99.90;;;;;;4977365;28;20574;-53
2022/10/22 09:24:12;;;;;;;21.80;13.87;;;14.40;99.90;;;;;;4978328;28;20937;-54
2022/10/22 09:26:41;;;;;;;19.00;13.80;;;14.40;99.90;;;;;;4978860;28;20534;-53
2022/10/22 09:29:13;;;;;;;23.07;13.70;;;14.50;99.90;;;;;;4977284;28;20460;-53
2022/10/22 09:31:40;;;;;;;15.10;12.37;;;14.70;99.90;;;;;;4979091;28;20500;-54
2022/10/22 09:34:06;;;;;;;16.63;12.03;;;14.70;99.90;;;;;;4984253;28;20544;-54
2022/10/22 09:36:35;;;;;;;16.03;12.97;;;14.80;99.90;;;;;;4986468;28;20456;-53
2022/10/22 09:39:03;;;;;;;17.93;13.07;;;14.80;99.90;;;;;;4985608;28;20464;-53
2022/10/22 09:41:30;;;;;;;17.10;13.70;;;14.90;99.90;;;;;;4971210;28;20496;-53
2022/10/22 09:43:58;;;;;;;24.67;13.73;;;14.90;99.90;;;;;;4976834;28;20479;-54
2022/10/22 09:46:29;;;;;;;23.23;12.83;;;14.90;99.90;;;;;;4983179;28;20954;-52
2022/10/22 09:49:02;;;;;;;17.20;12.03;;;14.90;99.90;;;;;;4978989;28;20472;-53
2022/10/22 09:51:46;;;;;;;15.60;13.03;;;14.90;99.90;;;;;;4987735;28;20461;-54
2022/10/22 09:54:16;;;;;;;15.53;13.60;;;14.90;99.90;;;;;;4980032;28;20891;-55
2022/10/22 09:56:52;;;;;;;16.47;12.53;;;14.80;99.90;;;;;;4977683;28;20464;-53
2022/10/22 09:59:27;;;;;;;13.80;11.97;;;14.80;99.90;;;;;;4983752;28;20507;-54
2022/10/22 10:02:06;;;;;;;13.87;12.40;;;14.80;99.90;;;;;;4972275;28;20481;-52
2022/10/22 10:04:35;;;;;;;16.93;12.97;;;14.80;99.90;;;;;;4986734;28;20890;-55
2022/10/22 10:07:03;;;;;;;17.40;12.50;;;14.80;99.90;;;;;;4986757;28;20468;-53
2022/10/22 10:09:34;;;;;;;19.70;13.83;;;14.80;99.90;;;;;;4987469;28;20472;-53
2022/10/22 10:12:07;;;;;;;15.77;12.70;;;14.80;99.90;;;;;;4980549;28;20457;-52
2022/10/22 10:14:43;;;;;;;16.23;12.70;;;14.90;99.90;;;;;;4981620;28;21117;-54
2022/10/22 10:17:20;;;;;;;18.20;13.57;;;14.90;99.90;;;;;;4982026;28;20511;-53
2022/10/22 10:19:57;;;;;;;18.80;13.90;;;14.90;99.90;;;;;;4982745;28;20756;-53
2022/10/22 10:22:39;;;;;;;15.53;13.43;;;15.00;99.90;;;;;;4989586;28;20515;-52
2022/10/22 10:25:25;;;;;;;16.60;13.50;;;15.10;99.90;;;;;;4988545;28;20547;-53
2022/10/22 10:27:57;;;;;;;19.83;15.00;;;15.10;99.90;;;;;;4991058;28;20519;-53
2022/10/22 10:30:24;;;;;;;21.23;16.20;;;15.20;99.90;;;;;;4979638;28;20492;-53
2022/10/22 10:33:05;;;;;;;18.13;14.93;;;15.20;99.90;;;;;;4985943;28;20462;-54
2022/10/22 10:35:42;;;;;;;22.80;17.17;;;15.20;99.90;;;;;;4982138;28;20497;-53
2022/10/22 10:38:32;;;;;;;24.40;16.53;;;15.30;99.90;;;;;;4985849;28;20456;-54
2022/10/22 10:41:08;;;;;;;37.77;25.53;;;15.50;99.90;;;;;;4980150;28;21004;-55
2022/10/22 10:43:43;;;;;;;25.33;19.40;;;15.40;99.90;;;;;;4985522;28;20460;-53
2022/10/22 10:46:17;;;;;;;34.27;21.47;;;15.40;21.30;;;;;;4981018;28;20491;-53
2022/10/22 10:48:50;;;;;;;30.13;22.37;;;15.50;75.00;;;;;;4981640;28;20479;-53
2022/10/22 10:51:37;;;;;;;34.03;22.90;;;15.50;20.30;;;;;;4986812;28;20457;-52
2022/10/22 10:54:25;;;;;;;27.40;19.43;;;15.60;26.80;;;;;;4985655;28;20511;-53
2022/10/22 10:56:57;;;;;;;29.93;20.93;;;15.70;54.90;;;;;;4987539;28;20592;-53
2022/10/22 10:59:37;;;;;;;28.53;20.73;;;15.90;37.10;;;;;;4984325;28;20460;-52
2022/10/22 11:02:20;;;;;;;24.70;17.70;;;16.10;51.70;;;;;;4983714;28;20464;-53
2022/10/22 11:05:07;;;;;;;35.13;20.17;;;16.30;64.30;;;;;;4989167;28;20543;-53
2022/10/22 11:07:40;;;;;;;30.87;18.20;;;16.50;83.50;;;;;;4990693;28;20482;-53
2022/10/22 11:10:19;;;;;;;30.27;18.57;;;16.60;99.90;;;;;;4988607;28;20958;-53
2022/10/22 11:12:51;;;;;;;22.40;17.30;;;16.60;99.90;;;;;;4989782;28;20469;-53
2022/10/22 11:15:27;;;;;;;21.47;17.37;;;16.60;99.90;;;;;;4983849;28;20477;-52
2022/10/22 11:17:59;;;;;;;25.07;18.07;;;16.50;99.90;;;;;;4989346;28;20465;-52
2022/10/22 11:20:40;;;;;;;27.17;20.03;;;16.50;99.90;;;;;;4987569;28;20488;-53
2022/10/22 11:23:14;;;;;;;25.73;17.30;;;16.50;99.90;;;;;;4980533;28;20967;-53
2022/10/22 11:25:44;;;;;;;24.13;17.00;;;16.50;99.90;;;;;;4989855;28;20476;-53
2022/10/22 11:28:16;;;;;;;30.77;18.07;;;16.40;99.90;;;;;;4982671;28;20515;-53
2022/10/22 11:30:46;;;;;;;29.47;19.57;;;16.50;99.90;;;;;;4986646;28;20460;-53
2022/10/22 11:33:18;;;;;;;24.73;18.87;;;16.60;99.90;;;;;;4988225;28;20518;-54
2022/10/22 11:35:46;;;;;;;25.50;19.40;;;16.70;99.90;;;;;;4992325;28;20539;-54
2022/10/22 11:38:15;;;;;;;30.17;20.30;;;16.70;99.90;;;;;;4991657;28;20460;-53
2022/10/22 11:40:47;;;;;;;25.70;18.87;;;16.70;99.90;;;;;;4991581;28;20484;-52
2022/10/22 11:43:27;;;;;;;24.03;17.67;;;16.70;99.90;;;;;;4990771;28;20464;-53
2022/10/22 11:46:00;;;;;;;30.73;18.77;;;16.60;99.90;;;;;;4990272;28;20492;-53
2022/10/22 11:48:34;;;;;;;24.77;18.57;;;16.60;99.90;;;;;;4987741;28;20472;-53
2022/10/22 11:51:01;;;;;;;24.57;17.80;;;17.10;99.90;;;;;;4991733;28;20456;-52
2022/10/22 11:53:31;;;;;;;24.90;18.17;;;17.20;99.90;;;;;;4991797;28;20472;-52
2022/10/22 11:56:20;;;;;;;24.13;18.20;;;17.10;99.90;;;;;;4991778;28;20998;-53
2022/10/22 11:58:48;;;;;;;23.17;17.40;;;17.00;99.90;;;;;;4982715;28;20495;-54
2022/10/22 12:01:25;;;;;;;20.07;15.70;;;16.90;99.90;;;;;;4987248;28;20483;-52
2022/10/22 12:04:13;;;;;;;20.57;15.90;;;16.80;99.90;;;;;;4990681;28;20466;-53
2022/10/22 12:06:56;;;;;;;24.60;17.77;;;17.00;99.90;;;;;;4983732;28;20487;-53
2022/10/22 12:09:25;;;;;;;20.70;15.93;;;17.50;99.90;;;;;;4990831;28;20456;-53
2022/10/22 12:11:54;;;;;;;20.63;16.13;;;17.80;99.90;;;;;;4990804;28;20467;-53
2022/10/22 12:14:25;;;;;;;21.60;15.30;;;17.80;21.30;;;;;;4990285;28;20484;-53
2022/10/22 12:16:55;;;;;;;25.57;15.70;;;17.80;24.40;;;;;;4988904;28;20822;-52
2022/10/22 12:19:27;;;;;;;20.30;17.10;;;17.70;31.20;;;;;;4989878;28;21101;-54
2022/10/22 12:21:55;;;;;;;17.30;15.50;;;17.60;27.50;;;;;;4987442;28;20489;-53
2022/10/22 12:24:24;;;;;;;24.60;15.00;;;17.60;23.80;;;;;;4986524;28;20473;-53
2022/10/22 12:26:52;;;;;;;17.70;15.47;;;17.40;99.90;;;;;;4989720;28;20468;-53
2022/10/22 12:29:22;;;;;;;22.17;14.87;;;17.40;89.10;;;;;;4987089;28;20950;-53
2022/10/22 12:31:49;;;;;;;23.40;14.00;;;17.50;99.90;;;;;;4986708;28;20541;-53
2022/10/22 12:34:17;;;;;;;18.23;13.27;;;17.50;99.90;;;;;;4990322;28;20480;-53
2022/10/22 12:36:46;;;;;;;23.13;17.30;;;17.70;99.90;;;;;;4989084;28;20472;-54
2022/10/22 12:39:15;;;;;;;17.20;12.50;;;17.70;99.90;;;;;;4990888;28;20465;-53
2022/10/22 12:41:42;;;;;;;18.73;11.93;;;17.90;99.90;;;;;;4971684;28;20571;-54